sensor_id;sensor_type;location;lat;lon;timestamp;temperature;humidity
51029;DHT22;37054;52.054;8.600;2024-01-16T00:01:54;5.70;68.40
51029;DHT22;37054;52.054;8.600;2024-01-16T00:04:20;5.70;68.50
51029;DHT22;37054;52.054;8.600;2024-01-16T00:06:45;5.70;68.40
51029;DHT22;37054;52.054;8.600;2024-01-16T00:09:11;5.70;68.40
51029;DHT22;37054;52.054;8.600;2024-01-16T00:11:43;5.70;68.10
51029;DHT22;37054;52.054;8.600;2024-01-16T00:14:09;5.60;68.10
51029;DHT22;37054;52.054;8.600;2024-01-16T00:16:42;5.60;68.30
51029;DHT22;37054;52.054;8.600;2024-01-16T00:19:08;5.70;68.50
51029;DHT22;37054;52.054;8.600;2024-01-16T00:21:41;5.60;68.50
51029;DHT22;37054;52.054;8.600;2024-01-16T00:24:07;5.70;68.50
51029;DHT22;37054;52.054;8.600;2024-01-16T00:26:32;5.70;68.60
51029;DHT22;37054;52.054;8.600;2024-01-16T00:28:58;5.70;68.70
51029;DHT22;37054;52.054;8.600;2024-01-16T00:31:23;5.70;68.70
51029;DHT22;37054;52.054;8.600;2024-01-16T00:33:49;5.70;68.70
51029;DHT22;37054;52.054;8.600;2024-01-16T00:36:15;5.70;68.70
51029;DHT22;37054;52.054;8.600;2024-01-16T00:38:40;5.70;68.50
51029;DHT22;37054;52.054;8.600;2024-01-16T00:41:06;5.70;68.40
51029;DHT22;37054;52.054;8.600;2024-01-16T00:43:32;5.70;68.40
51029;DHT22;37054;52.054;8.600;2024-01-16T00:45:58;5.70;68.50
51029;DHT22;37054;52.054;8.600;2024-01-16T00:48:26;5.70;68.50
51029;DHT22;37054;52.054;8.600;2024-01-16T00:50:51;5.70;68.60
51029;DHT22;37054;52.054;8.600;2024-01-16T00:53:17;5.70;68.60
51029;DHT22;37054;52.054;8.600;2024-01-16T00:55:42;5.70;68.50
51029;DHT22;37054;52.054;8.600;2024-01-16T00:58:08;5.70;68.30
51029;DHT22;37054;52.054;8.600;2024-01-16T01:00:34;5.70;68.30
51029;DHT22;37054;52.054;8.600;2024-01-16T01:03:00;5.70;68.20
51029;DHT22;37054;52.054;8.600;2024-01-16T01:05:26;5.60;68.20
51029;DHT22;37054;52.054;8.600;2024-01-16T01:07:57;5.60;68.00
51029;DHT22;37054;52.054;8.600;2024-01-16T01:10:22;5.50;68.00
51029;DHT22;37054;52.054;8.600;2024-01-16T01:12:48;5.50;68.00
51029;DHT22;37054;52.054;8.600;2024-01-16T01:15:14;5.50;67.90
51029;DHT22;37054;52.054;8.600;2024-01-16T01:17:40;5.40;67.70
51029;DHT22;37054;52.054;8.600;2024-01-16T01:20:07;5.30;67.30
51029;DHT22;37054;52.054;8.600;2024-01-16T01:22:33;5.20;67.00
51029;DHT22;37054;52.054;8.600;2024-01-16T01:24:59;5.10;66.80
51029;DHT22;37054;52.054;8.600;2024-01-16T01:27:24;5.10;66.70
51029;DHT22;37054;52.054;8.600;2024-01-16T01:29:50;5.00;66.80
51029;DHT22;37054;52.054;8.600;2024-01-16T01:32:15;5.00;67.00
51029;DHT22;37054;52.054;8.600;2024-01-16T01:34:44;4.90;67.20
51029;DHT22;37054;52.054;8.600;2024-01-16T01:37:09;4.90;67.40
51029;DHT22;37054;52.054;8.600;2024-01-16T01:39:35;4.90;67.60
51029;DHT22;37054;52.054;8.600;2024-01-16T01:42:00;4.90;67.70
51029;DHT22;37054;52.054;8.600;2024-01-16T01:44:26;4.90;67.80
51029;DHT22;37054;52.054;8.600;2024-01-16T01:46:54;5.00;67.70
51029;DHT22;37054;52.054;8.600;2024-01-16T01:49:21;5.00;67.60
51029;DHT22;37054;52.054;8.600;2024-01-16T01:51:48;4.90;67.20
51029;DHT22;37054;52.054;8.600;2024-01-16T01:54:15;4.90;67.10
51029;DHT22;37054;52.054;8.600;2024-01-16T01:56:44;4.80;67.10
51029;DHT22;37054;52.054;8.600;2024-01-16T01:59:10;4.80;67.40
51029;DHT22;37054;52.054;8.600;2024-01-16T02:01:36;4.90;67.60
51029;DHT22;37054;52.054;8.600;2024-01-16T02:04:02;4.90;67.70
51029;DHT22;37054;52.054;8.600;2024-01-16T02:06:27;4.90;67.80
51029;DHT22;37054;52.054;8.600;2024-01-16T02:08:53;4.90;67.90
51029;DHT22;37054;52.054;8.600;2024-01-16T02:11:19;5.00;68.10
51029;DHT22;37054;52.054;8.600;2024-01-16T02:13:45;5.00;68.30
51029;DHT22;37054;52.054;8.600;2024-01-16T02:16:20;5.10;68.40
51029;DHT22;37054;52.054;8.600;2024-01-16T02:18:45;5.10;68.60
51029;DHT22;37054;52.054;8.600;2024-01-16T02:21:13;5.20;68.60
51029;DHT22;37054;52.054;8.600;2024-01-16T02:23:40;5.30;68.60
51029;DHT22;37054;52.054;8.600;2024-01-16T02:26:06;5.30;68.60
51029;DHT22;37054;52.054;8.600;2024-01-16T02:28:32;5.30;68.60
51029;DHT22;37054;52.054;8.600;2024-01-16T02:30:57;5.30;68.50
51029;DHT22;37054;52.054;8.600;2024-01-16T02:33:23;5.30;68.60
51029;DHT22;37054;52.054;8.600;2024-01-16T02:35:48;5.40;68.60
51029;DHT22;37054;52.054;8.600;2024-01-16T02:38:14;5.40;68.50
51029;DHT22;37054;52.054;8.600;2024-01-16T02:40:40;5.40;68.40
51029;DHT22;37054;52.054;8.600;2024-01-16T02:43:06;5.30;68.40
51029;DHT22;37054;52.054;8.600;2024-01-16T02:45:31;5.30;68.20
51029;DHT22;37054;52.054;8.600;2024-01-16T02:47:57;5.30;68.00
51029;DHT22;37054;52.054;8.600;2024-01-16T02:50:23;5.30;67.70
51029;DHT22;37054;52.054;8.600;2024-01-16T02:52:48;5.20;67.70
51029;DHT22;37054;52.054;8.600;2024-01-16T02:55:14;5.20;67.80
51029;DHT22;37054;52.054;8.600;2024-01-16T02:57:40;5.20;68.00
51029;DHT22;37054;52.054;8.600;2024-01-16T03:00:05;5.20;68.20
51029;DHT22;37054;52.054;8.600;2024-01-16T03:02:33;5.30;68.40
51029;DHT22;37054;52.054;8.600;2024-01-16T03:04:58;5.30;68.50
51029;DHT22;37054;52.054;8.600;2024-01-16T03:07:24;5.40;68.50
51029;DHT22;37054;52.054;8.600;2024-01-16T03:09:49;5.40;68.60
51029;DHT22;37054;52.054;8.600;2024-01-16T03:12:15;5.40;68.60
51029;DHT22;37054;52.054;8.600;2024-01-16T03:14:40;5.40;68.50
51029;DHT22;37054;52.054;8.600;2024-01-16T03:17:06;5.40;68.50
51029;DHT22;37054;52.054;8.600;2024-01-16T03:19:32;5.40;68.50
51029;DHT22;37054;52.054;8.600;2024-01-16T03:21:57;5.40;68.60
51029;DHT22;37054;52.054;8.600;2024-01-16T03:24:23;5.50;68.50
51029;DHT22;37054;52.054;8.600;2024-01-16T03:26:49;5.40;68.50
51029;DHT22;37054;52.054;8.600;2024-01-16T03:29:15;5.40;68.40
51029;DHT22;37054;52.054;8.600;2024-01-16T03:31:40;5.40;68.30
51029;DHT22;37054;52.054;8.600;2024-01-16T03:34:06;5.40;68.30
51029;DHT22;37054;52.054;8.600;2024-01-16T03:36:34;5.40;68.20
51029;DHT22;37054;52.054;8.600;2024-01-16T03:38:59;5.30;67.80
51029;DHT22;37054;52.054;8.600;2024-01-16T03:41:25;5.30;67.70
51029;DHT22;37054;52.054;8.600;2024-01-16T03:43:51;5.20;68.00
51029;DHT22;37054;52.054;8.600;2024-01-16T03:46:16;5.30;68.10
51029;DHT22;37054;52.054;8.600;2024-01-16T03:48:42;5.30;68.20
51029;DHT22;37054;52.054;8.600;2024-01-16T03:51:07;5.30;68.30
51029;DHT22;37054;52.054;8.600;2024-01-16T03:53:34;5.30;68.40
51029;DHT22;37054;52.054;8.600;2024-01-16T03:55:59;5.30;68.50
51029;DHT22;37054;52.054;8.600;2024-01-16T03:58:25;5.30;68.30
51029;DHT22;37054;52.054;8.600;2024-01-16T04:00:50;5.30;68.10
51029;DHT22;37054;52.054;8.600;2024-01-16T04:03:17;5.20;67.80
51029;DHT22;37054;52.054;8.600;2024-01-16T04:05:43;5.20;67.60
51029;DHT22;37054;52.054;8.600;2024-01-16T04:08:08;5.10;67.60
51029;DHT22;37054;52.054;8.600;2024-01-16T04:10:34;5.10;67.50
51029;DHT22;37054;52.054;8.600;2024-01-16T04:13:01;5.00;67.40
51029;DHT22;37054;52.054;8.600;2024-01-16T04:15:27;5.00;67.30
51029;DHT22;37054;52.054;8.600;2024-01-16T04:17:52;4.90;67.10
51029;DHT22;37054;52.054;8.600;2024-01-16T04:20:18;4.90;67.10
51029;DHT22;37054;52.054;8.600;2024-01-16T04:22:45;4.90;67.50
51029;DHT22;37054;52.054;8.600;2024-01-16T04:25:10;4.90;67.80
51029;DHT22;37054;52.054;8.600;2024-01-16T04:27:36;5.00;68.20
51029;DHT22;37054;52.054;8.600;2024-01-16T04:30:01;5.10;68.30
51029;DHT22;37054;52.054;8.600;2024-01-16T04:32:27;5.10;68.40
51029;DHT22;37054;52.054;8.600;2024-01-16T04:34:53;5.20;68.50
51029;DHT22;37054;52.054;8.600;2024-01-16T04:37:18;5.20;68.50
51029;DHT22;37054;52.054;8.600;2024-01-16T04:39:44;5.30;68.60
51029;DHT22;37054;52.054;8.600;2024-01-16T04:42:09;5.30;68.70
51029;DHT22;37054;52.054;8.600;2024-01-16T04:44:35;5.30;68.60
51029;DHT22;37054;52.054;8.600;2024-01-16T04:47:00;5.30;68.60
51029;DHT22;37054;52.054;8.600;2024-01-16T04:49:27;5.40;68.70
51029;DHT22;37054;52.054;8.600;2024-01-16T04:51:52;5.40;68.60
51029;DHT22;37054;52.054;8.600;2024-01-16T04:54:18;5.50;68.70
51029;DHT22;37054;52.054;8.600;2024-01-16T04:56:43;5.50;68.60
51029;DHT22;37054;52.054;8.600;2024-01-16T04:59:09;5.50;68.60
51029;DHT22;37054;52.054;8.600;2024-01-16T05:01:34;5.60;68.60
51029;DHT22;37054;52.054;8.600;2024-01-16T05:04:00;5.60;68.50
51029;DHT22;37054;52.054;8.600;2024-01-16T05:06:25;5.50;68.70
51029;DHT22;37054;52.054;8.600;2024-01-16T05:08:51;5.60;68.70
51029;DHT22;37054;52.054;8.600;2024-01-16T05:11:16;5.60;68.60
51029;DHT22;37054;52.054;8.600;2024-01-16T05:13:42;5.60;68.40
51029;DHT22;37054;52.054;8.600;2024-01-16T05:16:07;5.60;68.60
51029;DHT22;37054;52.054;8.600;2024-01-16T05:18:33;5.60;68.50
51029;DHT22;37054;52.054;8.600;2024-01-16T05:20:59;5.60;68.60
51029;DHT22;37054;52.054;8.600;2024-01-16T05:23:25;5.60;68.60
51029;DHT22;37054;52.054;8.600;2024-01-16T05:25:50;5.60;68.50
51029;DHT22;37054;52.054;8.600;2024-01-16T05:28:16;5.60;68.50
51029;DHT22;37054;52.054;8.600;2024-01-16T05:30:41;5.60;68.50
51029;DHT22;37054;52.054;8.600;2024-01-16T05:33:08;5.60;68.60
51029;DHT22;37054;52.054;8.600;2024-01-16T05:35:33;5.50;68.60
51029;DHT22;37054;52.054;8.600;2024-01-16T05:37:59;5.60;68.70
51029;DHT22;37054;52.054;8.600;2024-01-16T05:40:25;5.60;68.70
51029;DHT22;37054;52.054;8.600;2024-01-16T05:42:50;5.60;68.60
51029;DHT22;37054;52.054;8.600;2024-01-16T05:45:16;5.60;68.60
51029;DHT22;37054;52.054;8.600;2024-01-16T05:47:42;5.60;68.50
51029;DHT22;37054;52.054;8.600;2024-01-16T05:50:08;5.60;68.60
51029;DHT22;37054;52.054;8.600;2024-01-16T05:52:34;5.60;68.60
51029;DHT22;37054;52.054;8.600;2024-01-16T05:55:00;5.60;68.60
51029;DHT22;37054;52.054;8.600;2024-01-16T05:57:27;5.60;68.60
51029;DHT22;37054;52.054;8.600;2024-01-16T05:59:53;5.70;68.60
51029;DHT22;37054;52.054;8.600;2024-01-16T06:02:18;5.70;68.70
51029;DHT22;37054;52.054;8.600;2024-01-16T06:04:44;5.70;68.60
51029;DHT22;37054;52.054;8.600;2024-01-16T06:07:09;5.70;68.60
51029;DHT22;37054;52.054;8.600;2024-01-16T06:09:39;5.70;68.60
51029;DHT22;37054;52.054;8.600;2024-01-16T06:12:07;5.60;68.50
51029;DHT22;37054;52.054;8.600;2024-01-16T06:14:34;5.60;68.50
51029;DHT22;37054;52.054;8.600;2024-01-16T06:17:00;5.60;68.60
51029;DHT22;37054;52.054;8.600;2024-01-16T06:19:26;5.60;68.60
51029;DHT22;37054;52.054;8.600;2024-01-16T06:21:51;5.60;68.60
51029;DHT22;37054;52.054;8.600;2024-01-16T06:24:17;5.60;68.50
51029;DHT22;37054;52.054;8.600;2024-01-16T06:26:42;5.50;68.60
51029;DHT22;37054;52.054;8.600;2024-01-16T06:29:08;5.60;68.50
51029;DHT22;37054;52.054;8.600;2024-01-16T06:31:34;5.50;68.40
51029;DHT22;37054;52.054;8.600;2024-01-16T06:34:00;5.60;68.50
51029;DHT22;37054;52.054;8.600;2024-01-16T06:36:25;5.60;68.50
51029;DHT22;37054;52.054;8.600;2024-01-16T06:38:51;5.60;68.50
51029;DHT22;37054;52.054;8.600;2024-01-16T06:41:16;5.50;68.20
51029;DHT22;37054;52.054;8.600;2024-01-16T06:43:42;5.40;68.20
51029;DHT22;37054;52.054;8.600;2024-01-16T06:46:07;5.40;68.20
51029;DHT22;37054;52.054;8.600;2024-01-16T06:48:35;5.40;68.40
51029;DHT22;37054;52.054;8.600;2024-01-16T06:51:02;5.40;68.50
51029;DHT22;37054;52.054;8.600;2024-01-16T06:53:27;5.40;68.50
51029;DHT22;37054;52.054;8.600;2024-01-16T06:55:53;5.40;68.40
51029;DHT22;37054;52.054;8.600;2024-01-16T06:58:18;5.40;68.30
51029;DHT22;37054;52.054;8.600;2024-01-16T07:00:44;5.40;68.30
51029;DHT22;37054;52.054;8.600;2024-01-16T07:03:11;5.50;68.30
51029;DHT22;37054;52.054;8.600;2024-01-16T07:05:36;5.50;68.40
51029;DHT22;37054;52.054;8.600;2024-01-16T07:08:02;5.40;68.60
51029;DHT22;37054;52.054;8.600;2024-01-16T07:10:28;5.50;68.50
51029;DHT22;37054;52.054;8.600;2024-01-16T07:12:53;5.50;68.40
51029;DHT22;37054;52.054;8.600;2024-01-16T07:15:20;5.50;68.50
51029;DHT22;37054;52.054;8.600;2024-01-16T07:17:46;5.50;68.50
51029;DHT22;37054;52.054;8.600;2024-01-16T07:20:11;5.50;68.50
51029;DHT22;37054;52.054;8.600;2024-01-16T07:22:37;5.50;68.60
51029;DHT22;37054;52.054;8.600;2024-01-16T07:25:05;5.50;68.50
51029;DHT22;37054;52.054;8.600;2024-01-16T07:27:31;5.50;68.40
51029;DHT22;37054;52.054;8.600;2024-01-16T07:29:56;5.50;68.40
51029;DHT22;37054;52.054;8.600;2024-01-16T07:32:22;5.50;68.50
51029;DHT22;37054;52.054;8.600;2024-01-16T07:34:48;5.50;68.50
51029;DHT22;37054;52.054;8.600;2024-01-16T07:37:13;5.60;68.60
51029;DHT22;37054;52.054;8.600;2024-01-16T07:39:41;5.60;68.60
51029;DHT22;37054;52.054;8.600;2024-01-16T07:42:06;5.60;68.50
51029;DHT22;37054;52.054;8.600;2024-01-16T07:44:33;5.70;68.60
51029;DHT22;37054;52.054;8.600;2024-01-16T07:46:58;5.60;68.50
51029;DHT22;37054;52.054;8.600;2024-01-16T07:49:24;5.70;68.40
51029;DHT22;37054;52.054;8.600;2024-01-16T07:51:49;5.70;68.40
51029;DHT22;37054;52.054;8.600;2024-01-16T07:54:15;5.70;68.50
51029;DHT22;37054;52.054;8.600;2024-01-16T07:56:40;5.70;68.60
51029;DHT22;37054;52.054;8.600;2024-01-16T07:59:06;5.70;68.70
51029;DHT22;37054;52.054;8.600;2024-01-16T08:01:32;5.70;68.50
51029;DHT22;37054;52.054;8.600;2024-01-16T08:03:58;5.70;68.60
51029;DHT22;37054;52.054;8.600;2024-01-16T08:06:24;5.80;68.50
51029;DHT22;37054;52.054;8.600;2024-01-16T08:08:50;5.80;68.50
51029;DHT22;37054;52.054;8.600;2024-01-16T08:11:16;5.80;68.50
51029;DHT22;37054;52.054;8.600;2024-01-16T08:13:42;5.80;68.60
51029;DHT22;37054;52.054;8.600;2024-01-16T08:16:08;5.80;68.40
51029;DHT22;37054;52.054;8.600;2024-01-16T08:18:36;5.80;68.30
51029;DHT22;37054;52.054;8.600;2024-01-16T08:21:02;5.80;68.20
51029;DHT22;37054;52.054;8.600;2024-01-16T08:23:28;5.80;68.30
51029;DHT22;37054;52.054;8.600;2024-01-16T08:25:53;5.80;68.40
51029;DHT22;37054;52.054;8.600;2024-01-16T08:28:19;5.80;68.40
51029;DHT22;37054;52.054;8.600;2024-01-16T08:30:44;5.80;68.40
51029;DHT22;37054;52.054;8.600;2024-01-16T08:33:11;5.80;68.40
51029;DHT22;37054;52.054;8.600;2024-01-16T08:35:37;5.80;68.40
51029;DHT22;37054;52.054;8.600;2024-01-16T08:38:02;5.80;68.30
51029;DHT22;37054;52.054;8.600;2024-01-16T08:40:28;5.80;68.40
51029;DHT22;37054;52.054;8.600;2024-01-16T08:42:53;5.90;68.30
51029;DHT22;37054;52.054;8.600;2024-01-16T08:45:23;5.90;68.50
51029;DHT22;37054;52.054;8.600;2024-01-16T08:47:49;5.90;68.50
51029;DHT22;37054;52.054;8.600;2024-01-16T08:50:15;6.00;68.40
51029;DHT22;37054;52.054;8.600;2024-01-16T08:52:41;6.00;68.70
51029;DHT22;37054;52.054;8.600;2024-01-16T08:55:07;6.10;68.80
51029;DHT22;37054;52.054;8.600;2024-01-16T08:57:34;6.20;68.70
51029;DHT22;37054;52.054;8.600;2024-01-16T09:00:00;6.20;68.80
51029;DHT22;37054;52.054;8.600;2024-01-16T09:02:25;6.30;69.00
51029;DHT22;37054;52.054;8.600;2024-01-16T09:04:54;6.40;69.10
51029;DHT22;37054;52.054;8.600;2024-01-16T09:07:20;6.50;68.90
51029;DHT22;37054;52.054;8.600;2024-01-16T09:09:45;6.50;68.90
51029;DHT22;37054;52.054;8.600;2024-01-16T09:12:11;6.50;68.80
51029;DHT22;37054;52.054;8.600;2024-01-16T09:14:37;6.50;68.90
51029;DHT22;37054;52.054;8.600;2024-01-16T09:17:02;6.60;68.80
51029;DHT22;37054;52.054;8.600;2024-01-16T09:19:28;6.50;68.50
51029;DHT22;37054;52.054;8.600;2024-01-16T09:21:55;6.60;68.70
51029;DHT22;37054;52.054;8.600;2024-01-16T09:24:20;6.60;68.70
51029;DHT22;37054;52.054;8.600;2024-01-16T09:26:46;6.70;68.70
51029;DHT22;37054;52.054;8.600;2024-01-16T09:29:12;6.70;68.70
51029;DHT22;37054;52.054;8.600;2024-01-16T09:31:37;6.70;68.60
51029;DHT22;37054;52.054;8.600;2024-01-16T09:34:04;6.70;68.70
51029;DHT22;37054;52.054;8.600;2024-01-16T09:36:30;6.70;68.70
51029;DHT22;37054;52.054;8.600;2024-01-16T09:38:56;6.70;68.50
51029;DHT22;37054;52.054;8.600;2024-01-16T09:41:21;6.70;68.70
51029;DHT22;37054;52.054;8.600;2024-01-16T09:43:47;6.70;68.70
51029;DHT22;37054;52.054;8.600;2024-01-16T09:46:14;6.70;68.60
51029;DHT22;37054;52.054;8.600;2024-01-16T09:48:41;6.70;68.60
51029;DHT22;37054;52.054;8.600;2024-01-16T09:51:10;6.80;68.60
51029;DHT22;37054;52.054;8.600;2024-01-16T09:53:36;6.80;68.50
51029;DHT22;37054;52.054;8.600;2024-01-16T09:56:02;6.70;68.60
51029;DHT22;37054;52.054;8.600;2024-01-16T09:58:31;6.80;68.50
51029;DHT22;37054;52.054;8.600;2024-01-16T10:00:59;6.70;68.60
51029;DHT22;37054;52.054;8.600;2024-01-16T10:03:25;6.80;68.80
51029;DHT22;37054;52.054;8.600;2024-01-16T10:05:50;6.80;68.90
51029;DHT22;37054;52.054;8.600;2024-01-16T10:08:16;6.90;68.80
51029;DHT22;37054;52.054;8.600;2024-01-16T10:10:46;6.90;68.80
51029;DHT22;37054;52.054;8.600;2024-01-16T10:13:13;6.90;68.80
51029;DHT22;37054;52.054;8.600;2024-01-16T10:15:39;7.00;69.00
51029;DHT22;37054;52.054;8.600;2024-01-16T10:18:05;7.10;68.90
51029;DHT22;37054;52.054;8.600;2024-01-16T10:20:46;7.10;68.90
51029;DHT22;37054;52.054;8.600;2024-01-16T10:26:08;7.10;68.60
51029;DHT22;37054;52.054;8.600;2024-01-16T10:28:35;7.10;68.90
51029;DHT22;37054;52.054;8.600;2024-01-16T10:31:11;7.10;68.80
51029;DHT22;37054;52.054;8.600;2024-01-16T10:33:37;7.10;68.90
51029;DHT22;37054;52.054;8.600;2024-01-16T10:36:17;7.10;68.60
51029;DHT22;37054;52.054;8.600;2024-01-16T10:38:45;7.10;68.60
51029;DHT22;37054;52.054;8.600;2024-01-16T10:41:15;7.10;68.60
51029;DHT22;37054;52.054;8.600;2024-01-16T10:43:41;7.10;68.50
51029;DHT22;37054;52.054;8.600;2024-01-16T10:46:17;7.00;68.60
51029;DHT22;37054;52.054;8.600;2024-01-16T10:48:44;7.00;68.60
51029;DHT22;37054;52.054;8.600;2024-01-16T10:51:17;7.00;68.70
51029;DHT22;37054;52.054;8.600;2024-01-16T10:53:44;7.10;69.10
51029;DHT22;37054;52.054;8.600;2024-01-16T10:56:10;7.10;68.80
51029;DHT22;37054;52.054;8.600;2024-01-16T10:58:42;7.20;69.00
51029;DHT22;37054;52.054;8.600;2024-01-16T11:01:15;7.20;69.20
51029;DHT22;37054;52.054;8.600;2024-01-16T11:03:49;7.20;68.90
51029;DHT22;37054;52.054;8.600;2024-01-16T11:06:18;7.30;68.80
51029;DHT22;37054;52.054;8.600;2024-01-16T11:08:47;7.30;69.00
51029;DHT22;37054;52.054;8.600;2024-01-16T11:11:14;7.30;68.80
51029;DHT22;37054;52.054;8.600;2024-01-16T11:13:39;7.30;68.80
51029;DHT22;37054;52.054;8.600;2024-01-16T11:16:08;7.30;68.80
51029;DHT22;37054;52.054;8.600;2024-01-16T11:18:35;7.30;68.50
51029;DHT22;37054;52.054;8.600;2024-01-16T11:21:04;7.30;68.30
51029;DHT22;37054;52.054;8.600;2024-01-16T11:23:30;7.20;68.60
51029;DHT22;37054;52.054;8.600;2024-01-16T11:25:56;7.20;68.50
51029;DHT22;37054;52.054;8.600;2024-01-16T11:28:27;7.20;68.40
51029;DHT22;37054;52.054;8.600;2024-01-16T11:30:52;7.20;68.40
51029;DHT22;37054;52.054;8.600;2024-01-16T11:35:59;7.20;68.40
51029;DHT22;37054;52.054;8.600;2024-01-16T11:38:26;7.20;68.60
51029;DHT22;37054;52.054;8.600;2024-01-16T11:40:55;7.20;68.50
51029;DHT22;37054;52.054;8.600;2024-01-16T11:46:05;7.20;68.60
51029;DHT22;37054;52.054;8.600;2024-01-16T11:48:31;7.30;68.30
51029;DHT22;37054;52.054;8.600;2024-01-16T11:50:57;7.30;68.50
51029;DHT22;37054;52.054;8.600;2024-01-16T11:53:35;7.30;68.50
51029;DHT22;37054;52.054;8.600;2024-01-16T11:56:24;7.40;68.60
51029;DHT22;37054;52.054;8.600;2024-01-16T12:01:43;7.40;68.70
51029;DHT22;37054;52.054;8.600;2024-01-16T12:04:11;7.40;68.70
51029;DHT22;37054;52.054;8.600;2024-01-16T12:06:37;7.40;68.40
51029;DHT22;37054;52.054;8.600;2024-01-16T12:09:17;7.40;68.10
51029;DHT22;37054;52.054;8.600;2024-01-16T12:11:56;7.30;68.20
51029;DHT22;37054;52.054;8.600;2024-01-16T12:14:23;7.30;68.20
51029;DHT22;37054;52.054;8.600;2024-01-16T12:16:49;7.30;68.30
51029;DHT22;37054;52.054;8.600;2024-01-16T12:19:14;7.30;68.30
51029;DHT22;37054;52.054;8.600;2024-01-16T12:21:41;7.20;68.00
51029;DHT22;37054;52.054;8.600;2024-01-16T12:24:07;7.20;67.70
51029;DHT22;37054;52.054;8.600;2024-01-16T12:26:32;7.20;68.00
51029;DHT22;37054;52.054;8.600;2024-01-16T12:28:58;7.20;67.90
51029;DHT22;37054;52.054;8.600;2024-01-16T12:31:24;7.20;68.10
51029;DHT22;37054;52.054;8.600;2024-01-16T12:33:50;7.10;68.00
51029;DHT22;37054;52.054;8.600;2024-01-16T12:36:16;7.10;68.00
51029;DHT22;37054;52.054;8.600;2024-01-16T12:38:42;7.10;67.80
51029;DHT22;37054;52.054;8.600;2024-01-16T12:41:10;7.00;67.80
51029;DHT22;37054;52.054;8.600;2024-01-16T12:43:36;7.00;67.70
51029;DHT22;37054;52.054;8.600;2024-01-16T12:46:05;6.90;67.70
51029;DHT22;37054;52.054;8.600;2024-01-16T12:48:32;6.90;67.50
51029;DHT22;37054;52.054;8.600;2024-01-16T12:51:01;6.80;67.60
51029;DHT22;37054;52.054;8.600;2024-01-16T12:53:27;6.80;67.60
51029;DHT22;37054;52.054;8.600;2024-01-16T12:56:01;6.70;67.60
51029;DHT22;37054;52.054;8.600;2024-01-16T12:58:35;6.70;67.60
51029;DHT22;37054;52.054;8.600;2024-01-16T13:01:23;6.70;67.80
51029;DHT22;37054;52.054;8.600;2024-01-16T13:03:49;6.60;68.00
51029;DHT22;37054;52.054;8.600;2024-01-16T13:06:19;6.60;68.30
51029;DHT22;37054;52.054;8.600;2024-01-16T13:08:48;6.70;68.20
51029;DHT22;37054;52.054;8.600;2024-01-16T13:11:14;6.70;68.20
51029;DHT22;37054;52.054;8.600;2024-01-16T13:13:48;6.70;68.30
51029;DHT22;37054;52.054;8.600;2024-01-16T13:16:15;6.70;68.30
51029;DHT22;37054;52.054;8.600;2024-01-16T13:18:41;6.70;68.00
51029;DHT22;37054;52.054;8.600;2024-01-16T13:21:07;6.70;68.20
51029;DHT22;37054;52.054;8.600;2024-01-16T13:23:32;6.70;68.40
51029;DHT22;37054;52.054;8.600;2024-01-16T13:25:58;6.70;68.40
51029;DHT22;37054;52.054;8.600;2024-01-16T13:28:30;6.70;68.30
51029;DHT22;37054;52.054;8.600;2024-01-16T13:30:55;6.70;68.20
51029;DHT22;37054;52.054;8.600;2024-01-16T13:33:23;6.70;68.30
51029;DHT22;37054;52.054;8.600;2024-01-16T13:35:52;6.70;68.30
51029;DHT22;37054;52.054;8.600;2024-01-16T13:38:20;6.70;68.40
51029;DHT22;37054;52.054;8.600;2024-01-16T13:40:45;6.70;68.30
51029;DHT22;37054;52.054;8.600;2024-01-16T13:43:11;6.70;68.50
51029;DHT22;37054;52.054;8.600;2024-01-16T13:45:37;6.70;68.30
51029;DHT22;37054;52.054;8.600;2024-01-16T13:48:04;6.70;68.00
51029;DHT22;37054;52.054;8.600;2024-01-16T13:50:31;6.70;67.90
51029;DHT22;37054;52.054;8.600;2024-01-16T13:52:57;6.60;68.00
51029;DHT22;37054;52.054;8.600;2024-01-16T13:55:22;6.60;67.80
51029;DHT22;37054;52.054;8.600;2024-01-16T13:57:48;6.60;68.00
51029;DHT22;37054;52.054;8.600;2024-01-16T14:00:15;6.60;68.00
51029;DHT22;37054;52.054;8.600;2024-01-16T14:02:42;6.60;68.30
51029;DHT22;37054;52.054;8.600;2024-01-16T14:05:12;6.60;68.20
51029;DHT22;37054;52.054;8.600;2024-01-16T14:07:41;6.60;68.00
51029;DHT22;37054;52.054;8.600;2024-01-16T14:10:10;6.70;68.00
51029;DHT22;37054;52.054;8.600;2024-01-16T14:12:37;6.60;68.10
51029;DHT22;37054;52.054;8.600;2024-01-16T14:15:03;6.70;67.90
51029;DHT22;37054;52.054;8.600;2024-01-16T14:17:32;6.60;67.70
51029;DHT22;37054;52.054;8.600;2024-01-16T14:19:59;6.60;67.90
51029;DHT22;37054;52.054;8.600;2024-01-16T14:22:24;6.70;68.00
51029;DHT22;37054;52.054;8.600;2024-01-16T14:24:52;6.70;67.90
51029;DHT22;37054;52.054;8.600;2024-01-16T14:27:17;6.70;67.80
51029;DHT22;37054;52.054;8.600;2024-01-16T14:29:43;6.60;67.40
51029;DHT22;37054;52.054;8.600;2024-01-16T14:32:08;6.60;67.30
51029;DHT22;37054;52.054;8.600;2024-01-16T14:34:35;6.50;67.30
51029;DHT22;37054;52.054;8.600;2024-01-16T14:37:00;6.50;67.30
51029;DHT22;37054;52.054;8.600;2024-01-16T14:39:26;6.40;67.40
51029;DHT22;37054;52.054;8.600;2024-01-16T14:41:56;6.40;67.20
51029;DHT22;37054;52.054;8.600;2024-01-16T14:44:23;6.30;67.10
51029;DHT22;37054;52.054;8.600;2024-01-16T14:46:49;6.20;67.30
51029;DHT22;37054;52.054;8.600;2024-01-16T14:49:14;6.20;67.40
51029;DHT22;37054;52.054;8.600;2024-01-16T14:51:40;6.20;67.50
51029;DHT22;37054;52.054;8.600;2024-01-16T14:54:06;6.20;67.40
51029;DHT22;37054;52.054;8.600;2024-01-16T14:56:31;6.20;67.50
51029;DHT22;37054;52.054;8.600;2024-01-16T14:58:58;6.20;67.70
51029;DHT22;37054;52.054;8.600;2024-01-16T15:01:23;6.20;67.80
51029;DHT22;37054;52.054;8.600;2024-01-16T15:03:49;6.20;68.00
51029;DHT22;37054;52.054;8.600;2024-01-16T15:06:15;6.20;68.10
51029;DHT22;37054;52.054;8.600;2024-01-16T15:08:42;6.30;67.90
51029;DHT22;37054;52.054;8.600;2024-01-16T15:11:08;6.20;68.00
51029;DHT22;37054;52.054;8.600;2024-01-16T15:13:33;6.20;68.00
51029;DHT22;37054;52.054;8.600;2024-01-16T15:15:59;6.30;67.90
51029;DHT22;37054;52.054;8.600;2024-01-16T15:18:25;6.20;67.80
51029;DHT22;37054;52.054;8.600;2024-01-16T15:20:50;6.20;67.70
51029;DHT22;37054;52.054;8.600;2024-01-16T15:23:16;6.20;67.50
51029;DHT22;37054;52.054;8.600;2024-01-16T15:25:42;6.20;67.50
51029;DHT22;37054;52.054;8.600;2024-01-16T15:28:07;6.20;67.40
51029;DHT22;37054;52.054;8.600;2024-01-16T15:30:33;6.20;67.50
51029;DHT22;37054;52.054;8.600;2024-01-16T15:33:01;6.10;67.60
51029;DHT22;37054;52.054;8.600;2024-01-16T15:35:28;6.10;67.40
51029;DHT22;37054;52.054;8.600;2024-01-16T15:37:54;6.10;67.40
51029;DHT22;37054;52.054;8.600;2024-01-16T15:40:19;6.10;67.60
51029;DHT22;37054;52.054;8.600;2024-01-16T15:42:45;6.10;67.50
51029;DHT22;37054;52.054;8.600;2024-01-16T15:45:10;6.10;67.30
51029;DHT22;37054;52.054;8.600;2024-01-16T15:47:36;6.00;67.40
51029;DHT22;37054;52.054;8.600;2024-01-16T15:50:03;6.10;67.30
51029;DHT22;37054;52.054;8.600;2024-01-16T15:52:30;6.00;67.50